Time,TemperatureF,DewpointF,PressureIn,WindDirection,WindDirectionDegrees,WindSpeedMPH,WindSpeedGustMPH,Humidity,HourlyPrecipIn,Conditions,Clouds,dailyrainin,SoftwareType,DateUTC
2013-02-27 00:04:00,37.9,36.0,29.86,NE,56,13.0,20.0,91,0.04,,,0.00,weatherlink.com 1.10,2013-02-27 05:04:00,
2013-02-27 00:19:00,37.9,36.0,29.85,ENE,70,6.0,20.0,92,0.07,,,0.04,weatherlink.com 1.10,2013-02-27 05:19:00,
2013-02-27 00:34:00,37.9,36.0,29.87,NNE,23,4.0,13.0,92,0.11,,,0.08,weatherlink.com 1.10,2013-02-27 05:34:00,
2013-02-27 00:49:00,37.9,36.0,29.86,NE,52,3.0,12.0,93,0.14,,,0.12,weatherlink.com 1.10,2013-02-27 05:49:00,
2013-02-27 01:04:00,37.9,36.0,29.86,ENE,74,5.0,11.0,93,0.19,,,0.19,weatherlink.com 1.10,2013-02-27 06:04:00,
2013-02-27 01:19:00,37.8,36.0,29.83,ENE,58,6.0,11.0,94,0.19,,,0.23,weatherlink.com 1.10,2013-02-27 06:19:00,
2013-02-27 01:34:00,37.9,36.0,29.82,NNW,331,3.0,15.0,94,0.16,,,0.24,weatherlink.com 1.10,2013-02-27 06:34:00,
2013-02-27 01:49:00,38.1,37.0,29.81,NE,56,5.0,13.0,94,0.14,,,0.26,weatherlink.com 1.10,2013-02-27 06:49:00,
2013-02-27 02:04:00,38.1,37.0,29.80,ESE,108,3.0,13.0,94,0.09,,,0.28,weatherlink.com 1.10,2013-02-27 07:04:00,
2013-02-27 02:19:00,38.0,37.0,29.78,ENE,64,11.0,14.0,94,0.08,,,0.31,weatherlink.com 1.10,2013-02-27 07:19:00,
2013-02-27 02:34:00,38.1,37.0,29.77,NE,37,7.0,15.0,94,0.10,,,0.34,weatherlink.com 1.10,2013-02-27 07:34:00,
2013-02-27 02:49:00,38.2,37.0,29.75,NNE,18,11.0,14.0,94,0.09,,,0.35,weatherlink.com 1.10,2013-02-27 07:49:00,
2013-02-27 03:05:00,38.4,37.0,29.73,NNE,23,6.0,16.0,94,0.08,,,0.36,weatherlink.com 1.10,2013-02-27 08:05:00,
2013-02-27 03:20:00,38.5,37.0,29.72,NE,44,5.0,15.0,94,0.07,,,0.39,weatherlink.com 1.10,2013-02-27 08:20:00,
2013-02-27 03:35:00,38.7,37.0,29.71,NNW,340,8.0,13.0,95,0.12,,,0.46,weatherlink.com 1.10,2013-02-27 08:35:00,
2013-02-27 03:50:00,38.7,37.0,29.70,ENE,70,6.0,13.0,95,0.16,,,0.51,weatherlink.com 1.10,2013-02-27 08:50:00,
2013-02-27 04:05:00,38.9,38.0,29.69,NNE,15,5.0,13.0,95,0.17,,,0.53,weatherlink.com 1.10,2013-02-27 09:05:00,
2013-02-27 04:20:00,39.1,38.0,29.68,North,352,3.0,12.0,95,0.19,,,0.58,weatherlink.com 1.10,2013-02-27 09:20:00,
2013-02-27 04:35:00,39.2,38.0,29.67,NNE,18,9.0,12.0,95,0.15,,,0.62,weatherlink.com 1.10,2013-02-27 09:35:00,
2013-02-27 04:50:00,39.3,38.0,29.66,ENE,57,7.0,12.0,95,0.15,,,0.66,weatherlink.com 1.10,2013-02-27 09:50:00,
2013-02-27 05:05:00,39.6,38.0,29.65,North,356,4.0,12.0,95,0.14,,,0.68,weatherlink.com 1.10,2013-02-27 10:05:00,
2013-02-27 05:20:00,40.1,39.0,29.65,ENE,68,5.0,14.0,95,0.19,,,0.77,weatherlink.com 1.10,2013-02-27 10:20:00,
2013-02-27 05:35:00,40.2,39.0,29.64,NE,53,12.0,13.0,95,0.25,,,0.87,weatherlink.com 1.10,2013-02-27 10:35:00,
2013-02-27 05:50:00,40.5,39.0,29.62,NE,36,7.0,14.0,95,0.25,,,0.92,weatherlink.com 1.10,2013-02-27 10:50:00,
2013-02-27 06:05:00,40.7,40.0,29.61,NE,47,13.0,13.0,96,0.28,,,0.96,weatherlink.com 1.10,2013-02-27 11:05:00,
2013-02-27 06:20:00,41.0,40.0,29.61,NNE,25,8.0,12.0,96,0.26,,,1.04,weatherlink.com 1.10,2013-02-27 11:20:00,
2013-02-27 06:35:00,41.2,40.0,29.60,ENE,77,6.0,11.0,96,0.25,,,1.12,weatherlink.com 1.10,2013-02-27 11:35:00,
2013-02-27 06:50:00,41.5,41.0,29.59,NE,37,6.0,11.0,96,0.27,,,1.19,weatherlink.com 1.10,2013-02-27 11:50:00,
2013-02-27 07:05:00,41.8,41.0,29.57,NNE,27,7.0,12.0,96,0.24,,,1.21,weatherlink.com 1.10,2013-02-27 12:05:00,
2013-02-27 07:20:00,42.4,41.0,29.57,East,82,2.0,11.0,96,0.18,,,1.22,weatherlink.com 1.10,2013-02-27 12:20:00,
2013-02-27 07:35:00,42.7,42.0,29.57,NNE,29,9.0,14.0,96,0.12,,,1.25,weatherlink.com 1.10,2013-02-27 12:35:00,
2013-02-27 07:50:00,42.8,42.0,29.56,NE,35,13.0,13.0,96,0.07,,,1.26,weatherlink.com 1.10,2013-02-27 12:50:00,
2013-02-27 08:05:00,46.4,46.0,29.56,NE,53,6.0,17.0,97,0.08,,,1.29,weatherlink.com 1.10,2013-02-27 13:05:00,
2013-02-27 08:20:00,45.2,43.0,29.55,NNE,32,6.0,11.0,93,0.11,,,1.33,weatherlink.com 1.10,2013-02-27 13:20:00,
2013-02-27 08:35:00,43.5,42.0,29.54,ENE,70,5.0,10.0,95,0.09,,,1.35,weatherlink.com 1.10,2013-02-27 13:35:00,
2013-02-27 08:50:00,43.6,43.0,29.54,NE,44,8.0,12.0,96,0.12,,,1.38,weatherlink.com 1.10,2013-02-27 13:50:00,
2013-02-27 09:05:00,44.9,44.0,29.53,NNE,18,6.0,16.0,97,0.10,,,1.39,weatherlink.com 1.10,2013-02-27 14:05:00,
2013-02-27 09:20:00,46.9,46.0,29.53,East,101,6.0,18.0,96,0.06,,,1.40,weatherlink.com 1.10,2013-02-27 14:20:00,
2013-02-27 09:35:00,45.9,45.0,29.52,ENE,61,9.0,13.0,96,0.06,,,1.41,weatherlink.com 1.10,2013-02-27 14:35:00,
2013-02-27 09:50:00,47.5,46.0,29.52,ENE,68,9.0,14.0,94,0.03,,,1.41,weatherlink.com 1.10,2013-02-27 14:50:00,
2013-02-27 10:06:00,47.7,46.0,29.52,North,356,4.0,20.0,94,0.02,,,1.41,weatherlink.com 1.10,2013-02-27 15:06:00,
2013-02-27 10:21:00,46.6,44.0,29.52,NNE,32,4.0,13.0,90,0.01,,,1.41,weatherlink.com 1.10,2013-02-27 15:21:00,
2013-02-27 10:36:00,44.8,44.0,29.51,NW,326,6.0,12.0,96,0.00,,,1.41,weatherlink.com 1.10,2013-02-27 15:36:00,
2013-02-27 10:51:00,47.1,46.0,29.50,ENE,75,9.0,14.0,96,0.04,,,1.45,weatherlink.com 1.10,2013-02-27 15:51:00,
2013-02-27 11:06:00,47.1,45.0,29.50,NNW,331,0.0,13.0,93,0.04,,,1.45,weatherlink.com 1.10,2013-02-27 16:06:00,
2013-02-27 11:21:00,45.1,44.0,29.50,NNE,23,2.0,4.0,94,0.04,,,1.45,weatherlink.com 1.10,2013-02-27 16:21:00,
2013-02-27 11:36:00,44.3,43.0,29.49,ENE,60,3.0,8.0,96,0.05,,,1.46,weatherlink.com 1.10,2013-02-27 16:36:00,
2013-02-27 11:51:00,44.7,44.0,29.47,NNE,33,5.0,8.0,96,0.01,,,1.46,weatherlink.com 1.10,2013-02-27 16:51:00,
2013-02-27 12:06:00,45.6,45.0,29.48,NNE,29,1.0,5.0,97,0.01,,,1.46,weatherlink.com 1.10,2013-02-27 17:06:00,
2013-02-27 12:21:00,44.4,43.0,29.48,NNE,16,5.0,7.0,95,0.01,,,1.46,weatherlink.com 1.10,2013-02-27 17:21:00,
2013-02-27 12:36:00,43.8,43.0,29.47,NW,318,2.0,6.0,96,0.00,,,1.46,weatherlink.com 1.10,2013-02-27 17:36:00,
2013-02-27 12:51:00,43.4,42.0,29.47,NNE,26,4.0,4.0,96,0.00,,,1.46,weatherlink.com 1.10,2013-02-27 17:51:00,
2013-02-27 13:06:00,43.5,43.0,29.47,NNE,32,3.0,4.0,96,0.00,,,1.46,weatherlink.com 1.10,2013-02-27 18:06:00,
2013-02-27 13:21:00,43.3,42.0,29.47,NNE,20,2.0,5.0,96,0.00,,,1.46,weatherlink.com 1.10,2013-02-27 18:21:00,
2013-02-27 13:51:00,43.8,43.0,29.47,WNW,301,1.0,2.0,97,0.00,,,1.46,weatherlink.com 1.10,2013-02-27 18:51:00,
2013-02-27 14:06:00,43.6,42.0,29.48,WNW,287,2.0,5.0,95,0.00,,,1.46,weatherlink.com 1.10,2013-02-27 19:06:00,
2013-02-27 14:21:00,43.9,43.0,29.48,NW,310,2.0,5.0,96,0.00,,,1.46,weatherlink.com 1.10,2013-02-27 19:21:00,
2013-02-27 14:36:00,44.3,43.0,29.49,NW,326,2.0,5.0,96,0.00,,,1.46,weatherlink.com 1.10,2013-02-27 19:36:00,
2013-02-27 14:51:00,44.7,44.0,29.49,WNW,291,0.0,3.0,96,0.00,,,1.46,weatherlink.com 1.10,2013-02-27 19:51:00,
2013-02-27 15:06:00,45.5,45.0,29.49,WNW,290,1.0,2.0,96,0.00,,,1.46,weatherlink.com 1.10,2013-02-27 20:06:00,
2013-02-27 15:21:00,46.1,45.0,29.50,WNW,298,0.0,3.0,96,0.00,,,1.46,weatherlink.com 1.10,2013-02-27 20:21:00,
2013-02-27 15:36:00,46.9,45.0,29.51,West,277,6.0,8.0,94,0.00,,,1.46,weatherlink.com 1.10,2013-02-27 20:36:00,
2013-02-27 15:51:00,47.4,46.0,29.51,WSW,251,2.0,8.0,93,0.00,,,1.46,weatherlink.com 1.10,2013-02-27 20:51:00,
2013-02-27 16:06:00,47.5,45.0,29.52,WNW,291,3.0,8.0,92,0.00,,,1.46,weatherlink.com 1.10,2013-02-27 21:06:00,
2013-02-27 16:21:00,47.8,45.0,29.52,WSW,245,6.0,8.0,90,0.00,,,1.46,weatherlink.com 1.10,2013-02-27 21:21:00,
2013-02-27 16:36:00,48.1,45.0,29.53,SSW,207,4.0,10.0,88,0.00,,,1.46,weatherlink.com 1.10,2013-02-27 21:36:00,
2013-02-27 16:51:00,48.1,43.0,29.53,SW,233,7.0,12.0,83,0.00,,,1.46,weatherlink.com 1.10,2013-02-27 21:51:00,
2013-02-27 17:06:00,48.4,42.0,29.54,WSW,257,6.0,18.0,77,0.00,,,1.46,weatherlink.com 1.10,2013-02-27 22:06:00,
2013-02-27 17:21:00,48.3,41.0,29.55,East,98,11.0,13.0,77,0.00,,,1.46,weatherlink.com 1.10,2013-02-27 22:21:00,
2013-02-27 17:36:00,47.9,41.0,29.56,SSW,192,5.0,13.0,76,0.00,,,1.46,weatherlink.com 1.10,2013-02-27 22:36:00,
2013-02-27 17:51:00,47.3,39.0,29.57,WSW,247,5.0,18.0,72,0.00,,,1.46,weatherlink.com 1.10,2013-02-27 22:51:00,
2013-02-27 18:06:00,46.8,39.0,29.58,West,278,4.0,14.0,73,0.00,,,1.46,weatherlink.com 1.10,2013-02-27 23:06:00,
2013-02-27 18:21:00,46.3,38.0,29.59,WNW,299,7.0,15.0,73,0.00,,,1.46,weatherlink.com 1.10,2013-02-27 23:21:00,
2013-02-27 18:36:00,45.7,38.0,29.59,WNW,293,4.0,9.0,75,0.00,,,1.46,weatherlink.com 1.10,2013-02-27 23:36:00,
2013-02-27 18:51:00,45.5,38.0,29.60,SW,233,5.0,8.0,76,0.00,,,1.46,weatherlink.com 1.10,2013-02-27 23:51:00,
2013-02-27 19:06:00,45.3,38.0,29.60,SW,232,2.0,8.0,76,0.00,,,1.46,weatherlink.com 1.10,2013-02-28 00:06:00,
2013-02-27 19:21:00,45.3,38.0,29.60,WNW,301,1.0,9.0,76,0.00,,,1.46,weatherlink.com 1.10,2013-02-28 00:21:00,
2013-02-27 19:36:00,45.3,38.0,29.60,WSW,255,3.0,9.0,75,0.00,,,1.46,weatherlink.com 1.10,2013-02-28 00:36:00,
2013-02-27 19:51:00,45.3,38.0,29.61,WNW,294,2.0,11.0,75,0.00,,,1.46,weatherlink.com 1.10,2013-02-28 00:51:00,
2013-02-27 20:06:00,45.4,38.0,29.61,West,280,3.0,9.0,74,0.00,,,1.46,weatherlink.com 1.10,2013-02-28 01:06:00,
2013-02-27 20:21:00,45.5,38.0,29.62,WSW,243,2.0,9.0,74,0.00,,,1.46,weatherlink.com 1.10,2013-02-28 01:21:00,
2013-02-27 20:36:00,45.7,38.0,29.62,WSW,249,1.0,9.0,75,0.00,,,1.46,weatherlink.com 1.10,2013-02-28 01:36:00,
2013-02-27 20:51:00,45.8,38.0,29.63,WSW,250,0.0,10.0,74,0.00,,,1.46,weatherlink.com 1.10,2013-02-28 01:51:00,
2013-02-27 21:06:00,45.6,37.0,29.63,WNW,302,3.0,12.0,73,0.00,,,1.46,weatherlink.com 1.10,2013-02-28 02:06:00,
2013-02-27 21:21:00,45.7,37.0,29.62,NW,314,2.0,11.0,72,0.00,,,1.46,weatherlink.com 1.10,2013-02-28 02:21:00,
2013-02-27 21:36:00,46.0,37.0,29.62,NW,316,3.0,11.0,72,0.00,,,1.46,weatherlink.com 1.10,2013-02-28 02:36:00,
2013-02-27 21:51:00,46.0,37.0,29.62,North,8,3.0,9.0,72,0.00,,,1.46,weatherlink.com 1.10,2013-02-28 02:51:00,
2013-02-27 22:06:00,46.4,37.0,29.61,NW,319,4.0,11.0,71,0.00,,,1.46,weatherlink.com 1.10,2013-02-28 03:06:00,
2013-02-27 22:21:00,46.4,38.0,29.62,WSW,255,1.0,7.0,72,0.00,,,1.46,weatherlink.com 1.10,2013-02-28 03:21:00,
2013-02-27 22:36:00,46.0,38.0,29.62,WNW,288,0.0,7.0,73,0.00,,,1.46,weatherlink.com 1.10,2013-02-28 03:36:00,
2013-02-27 22:51:00,45.9,38.0,29.61,WSW,251,2.0,5.0,74,0.00,,,1.46,weatherlink.com 1.10,2013-02-28 03:51:00,
2013-02-27 23:06:00,46.1,38.0,29.61,West,259,3.0,8.0,73,0.00,,,1.46,weatherlink.com 1.10,2013-02-28 04:06:00,
2013-02-27 23:21:00,46.0,38.0,29.61,WSW,243,5.0,5.0,74,0.00,,,1.46,weatherlink.com 1.10,2013-02-28 04:21:00,
2013-02-27 23:36:00,45.9,38.0,29.61,WSW,250,0.0,4.0,75,0.00,,,1.46,weatherlink.com 1.10,2013-02-28 04:36:00,
2013-02-27 23:51:00,45.6,39.0,29.60,WSW,248,1.0,2.0,77,0.00,,,1.46,weatherlink.com 1.10,2013-02-28 04:51:00,